Cactus Peak, Santa Catalina Island Weather observations

Data are for 10 minute period ending at time listed.
 Day   Time   Solar   Ave.   Ave.  Ave.  Vector    Max.   Stn.    Total
  of    of     Rad.   Air    Rel.  Wind   Wind     Wind   Baro.  Precip.
Year   Day            Temp.  Hum.  Speed  Dir.     Gust   Pres.         
2015   (PST)   W/m2    F      %     mph   deg.      mph    mb.     in.  
------------------------------------------------------------------------
  91    2:10    0.0    58   82.2     5    326.2     6.0    999.0   0.00  
  91    2:20    0.0    58   80.3     6    333.3     6.6    999.0   0.00  
  91    2:30    0.0    58   78.4     6    348.3     6.0    999.0   0.00  
  91    2:40    0.0    58   79.6     8      2.8    10.2    999.0   0.00  
  91    2:50    0.0    57   81.2    10      7.8    13.1    999.0   0.00  
  91    3:00    0.0    58   77.4    12      8.1    14.3    999.0   0.00  
  91    3:10    0.0    58   74.4    12     13.4    16.1    999.0   0.00  
  91    3:20    0.0    58   74.4    11     19.3    14.3    999.0   0.00  
  91    3:30    0.0    58   77.2    10     23.9    13.1    999.0   0.00  
  91    3:40    0.0    57   78.9    10     23.0    13.1    999.0   0.00  
  91    3:50    0.0    58   77.1    11     18.6    14.9    999.0   0.00  
  91    4:00    0.0    58   74.5    14     14.6    17.9    999.0   0.00  
  91    4:10    0.0    59   70.2    15     10.9    19.1    999.0   0.00  
  91    4:20    0.0    59   68.8    13      8.8    18.5    999.0   0.00  
  91    4:30    0.0    59   69.4    13      7.2    15.5    999.0   0.00  
  91    4:40    0.0    59   68.0    12      8.3    15.5    999.0   0.00  
  91    4:50    0.0    59   67.8    11      9.9    14.3    999.0   0.00  
  91    5:00    0.0    59   67.1     7     12.3    12.5    999.0   0.00  
  91    5:10    0.0    58   69.9     7     18.2     9.6    999.0   0.00  
  91    5:20    0.0    58   71.8     6     30.0     8.4    999.0   0.00  
  91    5:30    0.0    58   74.9     5     32.0     6.0    999.0   0.00  
  91    5:40    1.0    58   77.0     5     42.1     6.6    999.0   0.00  
  91    5:50    6.0    58   79.4     5     43.7     6.6    999.0   0.00  
  91    6:00   16.0    57   80.6     4     27.3     6.6    999.0   0.00  
  91    6:10   31.0    57   80.8     3    103.9     3.6    999.0   0.00  
  91    6:20   49.0    58   79.5     3     67.6     4.8    999.0   0.00  
  91    6:30   82.0    59   78.4     2      5.6     3.6    999.0   0.00  
  91    6:40  127.0    59   79.6     3    123.7     4.2    999.0   0.00  
  91    6:50  162.0    60   78.6     1    119.7     1.8    999.0   0.00  
  91    7:00  172.0    62   73.9     3     18.7     5.4    999.0   0.00  
  91    7:10  214.0    61   75.7     3      6.6     4.8    999.0   0.00  
  91    7:20  283.0    63   72.8     3     26.6     5.4    999.0   0.00  
  91    7:30  272.0    62   72.7     5    345.4     6.6    999.0   0.00  
  91    7:40  283.0    62   72.5     4    336.3     5.4    999.0   0.00  
  91    7:50  398.0    63   72.4     6    347.0     8.4    999.0   0.00  
  91    8:00  392.0    63   70.6     6    339.6     9.0    999.0   0.00  
  91    8:10  348.0    63   69.7     4    342.7     6.6    999.0   0.00  
  91    8:20  383.0    63   69.6     3    331.8     6.0    999.0   0.00  
  91    8:30  458.0    63   75.9     5    172.6     9.6    999.0   0.00  
  91    8:40  437.0    62   78.2     5    164.5    10.2    999.0   0.00  
  91    8:50  485.0    63   75.6     2    359.7     4.8    999.0   0.00  
  91    9:00  482.0    64   70.5     5    345.4    10.8    999.0   0.00  
  91    9:10  604.0    65   66.4     9    349.4    11.9    999.0   0.00  
  91    9:20  574.0    65   67.5     6    354.7    11.9    999.0   0.00  
  91    9:30  676.0    66   67.7     4    209.4     9.0    999.0   0.00  
  91    9:40  718.0    64   74.6     7    172.3    11.9    999.0   0.00  
  91    9:50  723.0    64   75.9     8    167.5    13.1    999.0   0.00  
  91   10:00  768.0    63   76.3    10    169.0    16.1    999.0   0.00  
  91   10:10  809.0    63   76.3    10    173.7    16.1    999.0   0.00  
  91   10:20  820.0    64   75.8    10    173.5    14.3    999.0   0.00  
  91   10:30  598.0    63   76.7     9    169.2    15.5    999.0   0.00  
  91   10:40  684.0    63   76.9     9    168.9    14.3    999.0   0.00  
  91   10:50  857.0    64   76.0    10    175.1    15.5    999.0   0.00  
  91   11:00  868.0    64   74.8     9    172.7    13.7    999.0   0.00  
  91   11:10  888.0    64   74.6     9    174.7    14.3    999.0   0.00  
  91   11:20  833.0    64   74.4     8    173.5    13.1    999.0   0.00  
  91   11:30  904.0    66   72.4     8    200.4    14.9    999.0   0.00  
  91   11:40  913.0    66   69.1     5    290.9     9.6    999.0   0.00  
  91   11:50  907.0    67   66.0     8    349.6    11.3    999.0   0.00  
  91   12:00  910.0    67   65.8     8    338.1    12.5    999.0   0.00  
  91   12:10  913.0    67   64.8     8    335.6    11.3    999.0   0.00  
  91   12:20  914.0    68   62.1     8    346.6    13.1    999.0   0.00  
  91   12:30  913.0    68   56.2     9    344.8    13.1    999.0   0.00  
  91   12:40  904.0    68   55.3    10    355.6    14.3    999.0   0.00  
  91   12:50  901.0    68   58.0     9    330.0    13.1    999.0   0.00  
  91   13:00  896.0    69   51.7    10    336.1    14.9    999.0   0.00  
  91   13:10  885.0    69   53.0    10    338.1    14.3    999.0   0.00  
  91   13:20  874.0    69   56.5     9    335.6    13.7    999.0   0.00  
  91   13:30  853.0    69   62.6    10    335.1    13.7    999.0   0.00  
  91   13:40  838.0    68   65.7    11    336.4    14.9    999.0   0.00  
  91   13:50  818.0    69   64.4    10    326.7    13.7    999.0   0.00  
  91   14:00  802.0    68   64.3     9    317.8    13.1    999.0   0.00  
  91   14:10  774.0    68   64.3     9    319.6    12.5    999.0   0.00  
  91   14:20  752.0    68   64.4    10    332.9    14.3    999.0   0.00  
  91   14:30  736.0    68   64.7    10    323.2    13.7    999.0   0.00  
  91   14:40  712.0    68   60.9    10    323.5    13.7    999.0   0.00  
  91   14:50  687.0    68   58.2    10    328.5    16.7    999.0   0.00  
  91   15:00  659.0    68   59.1     9    330.2    13.7    999.0   0.00  
  91   15:10  616.0    67   60.4    10    334.3    15.5    999.0   0.00  
  91   15:20  594.0    67   60.9    10    308.5    13.7    999.0   0.00  
  91   15:30  572.0    66   64.5    11    299.8    15.5    999.0   0.00  
  91   15:40  538.0    65   69.0    11    299.4    15.5    999.0   0.00  
  91   15:50  513.0    64   71.3    12    307.0    16.7    999.0   0.00  
  91   16:00  484.0    64   73.9    12    308.3    18.5    999.0   0.00  
  91   16:10  433.0    64   73.8    12    308.6    19.1    999.0   0.00  
  91   16:20  398.0    63   73.8    13    310.6    19.1    999.0   0.00  
  91   16:30  360.0    63   70.6    13    314.6    19.1    999.0   0.00  
  91   16:40  332.0    62   65.5    14    327.2    20.3    999.0   0.00  
  91   16:50  298.0    62   66.9    15    322.2    20.3    999.0   0.00  
  91   17:00  263.0    62   68.6    14    330.7    20.3    999.0   0.00  
  91   17:10  230.0    61   70.3    16    328.4    22.7    999.0   0.00  
  91   17:20  193.0    60   68.7    17    330.2    23.9    999.0   0.00  
  91   17:30  158.0    60   69.7    15    330.6    22.1    999.0   0.00  
  91   17:40  123.0    60   71.1    12    327.6    17.9    999.0   0.00  
  91   17:50   82.0    60   71.1    12    316.1    19.7    999.0   0.00  
  91   18:00   46.0    59   71.4    16    302.6    21.5    999.0   0.00  
  91   18:10   22.0    58   70.7    13    306.6    18.5    999.0   0.00  
  91   18:20    8.0    58   72.1    12    305.1    16.7    999.0   0.00  
  91   18:30    1.0    57   71.9    10    315.1    14.9    999.0   0.00  
  91   18:40    0.0    57   73.1    11    325.9    15.5    999.0   0.00  
  91   18:50    0.0    56   74.4     9    340.8    11.9    999.0   0.00  
  91   19:00    0.0    56   74.4    10    333.1    13.7    999.0   0.00  
  91   19:10    0.0    56   74.1     7    305.6    10.2    999.0   0.00  
  91   19:20    0.0    56   75.0     7    339.6    10.8    999.0   0.00  
  91   19:30    0.0    56   76.8     6    351.2     8.4    999.0   0.00  
  91   19:40    0.0    56   76.9     5    327.5     6.6    999.0   0.00  
  91   19:50    0.0    56   78.0     6    335.9     7.8    999.0   0.00  
  91   20:00    0.0    55   79.8     8      1.5     9.0    999.0   0.00  
  91   20:10    0.0    56   81.2     7     20.3    10.2    999.0   0.00  
  91   20:20    0.0    58   63.3     8     19.5     9.6    999.0   0.00  
  91   20:30    0.0    59   58.0     8     32.0     9.6    999.0   0.00  
  91   20:40    0.0    59   58.4     8     29.4     9.6    999.0   0.00  
  91   20:50    0.0    58   64.3     7      2.6     8.4    999.0   0.00  
  91   21:00    0.0    58   63.0     6    351.2     8.4    999.0   0.00  
  91   21:10    0.0    59   58.1     5    347.1     6.6    999.0   0.00  
  91   21:20    0.0    59   57.9     9    354.5    10.8    999.0   0.00  
  91   21:30    0.0    58   60.0     9    357.7    10.2    999.0   0.00  
  91   21:40    0.0    59   57.2     8      4.1     9.6    999.0   0.00  
  91   21:50    0.0    59   57.3     9     13.1     9.6    999.0   0.00  
  91   22:00    0.0    59   57.9     9     22.5    10.8    999.0   0.00  
  91   22:10    0.0    59   55.1     7     32.8     8.4    999.0   0.00  
  91   22:20    0.0    60   52.9     7     24.8     8.4    999.0   0.00  
  91   22:30    0.0    60   52.8     6     28.0     7.8    999.0   0.00  
  91   22:40    0.0    60   51.5     6     21.7     6.6    999.0   0.00  
  91   22:50    0.0    60   51.9     5     24.8     6.0    999.0   0.00  
  91   23:00    0.0    60   52.8     4     21.1     4.8    999.0   0.00  
  91   23:10    0.0    58   60.1     4    348.4     4.8    999.0   0.00  
  91   23:20    0.0    57   69.8     4    332.2     6.0    999.0   0.00  
  91   23:30    0.0    56   76.1     5    333.0     7.2    999.0   0.00  
  91   23:40    0.0    55   80.7     6    328.3     8.4    999.0   0.00  
  91   23:50    0.0    55   83.0     6    327.6     7.2    999.0   0.00  
  92    0:00    0.0    55   83.9     6    332.0     7.2    999.0   0.00  
  92    0:10    0.0    55   84.7     5    332.5     6.6    999.0   0.00  
  92    0:20    0.0    55   83.0     4     32.4     7.8    999.0   0.00  
  92    0:30    0.0    57   71.1     6     62.3     8.4    999.0   0.00  
  92    0:40    0.0    57   71.3     6     12.1     7.2    999.0   0.00  
  92    0:50    0.0    55   79.8     7    353.9     8.4    999.0   0.00  
  92    1:00    0.0    55   82.1     6      3.8     7.8    999.0   0.00  
  92    1:10    0.0    56   75.7     4    355.3     6.0    999.0   0.00  
  92    1:20    0.0    56   72.5     5    353.5     7.2    999.0   0.00  
  92    1:30    0.0    56   72.1     6    358.1     7.8    999.0   0.00  
  92    1:40    0.0    56   77.5     4    342.9     6.0    999.0   0.00  
  92    1:50    0.0    56   72.1     6     19.4     8.4    999.0   0.00  
  92    2:00    0.0    56   73.6     7     11.2     8.4    999.0   0.00  

Return to Cactus Peak graphs page.


Western Regional Climate Center,wrcc@dri.edu